sensor_id;sensor_type;location;lat;lon;timestamp;P1;durP1;ratioP1;P2;durP2;ratioP2
75744;SDS011;64359;51.366;-0.222;2023-07-28T00:00:35;2.60;;;2.40;;
75744;SDS011;64359;51.366;-0.222;2023-07-28T00:01:42;2.50;;;2.30;;
75744;SDS011;64359;51.366;-0.222;2023-07-28T00:02:47;3.00;;;2.70;;
75744;SDS011;64359;51.366;-0.222;2023-07-28T00:03:51;3.00;;;2.70;;
75744;SDS011;64359;51.366;-0.222;2023-07-28T00:04:56;2.90;;;2.70;;
75744;SDS011;64359;51.366;-0.222;2023-07-28T00:06:01;2.80;;;2.50;;
75744;SDS011;64359;51.366;-0.222;2023-07-28T00:07:06;2.70;;;2.50;;
75744;SDS011;64359;51.366;-0.222;2023-07-28T00:08:11;2.90;;;2.70;;
75744;SDS011;64359;51.366;-0.222;2023-07-28T00:09:16;3.10;;;2.70;;
75744;SDS011;64359;51.366;-0.222;2023-07-28T00:10:20;3.10;;;2.70;;
75744;SDS011;64359;51.366;-0.222;2023-07-28T00:11:25;3.60;;;3.30;;
75744;SDS011;64359;51.366;-0.222;2023-07-28T00:12:30;2.90;;;2.70;;
75744;SDS011;64359;51.366;-0.222;2023-07-28T00:13:34;2.90;;;2.30;;
75744;SDS011;64359;51.366;-0.222;2023-07-28T00:14:39;2.90;;;2.70;;
75744;SDS011;64359;51.366;-0.222;2023-07-28T00:15:43;2.70;;;2.50;;
75744;SDS011;64359;51.366;-0.222;2023-07-28T00:16:48;2.60;;;2.20;;
75744;SDS011;64359;51.366;-0.222;2023-07-28T00:17:52;2.50;;;2.30;;
75744;SDS011;64359;51.366;-0.222;2023-07-28T00:18:57;2.40;;;2.20;;
75744;SDS011;64359;51.366;-0.222;2023-07-28T00:20:02;2.90;;;2.60;;
75744;SDS011;64359;51.366;-0.222;2023-07-28T00:21:07;2.90;;;2.60;;
75744;SDS011;64359;51.366;-0.222;2023-07-28T00:22:12;2.60;;;2.40;;
75744;SDS011;64359;51.366;-0.222;2023-07-28T00:23:18;2.60;;;2.40;;
75744;SDS011;64359;51.366;-0.222;2023-07-28T00:24:23;2.70;;;2.50;;
75744;SDS011;64359;51.366;-0.222;2023-07-28T00:25:27;2.60;;;2.40;;
75744;SDS011;64359;51.366;-0.222;2023-07-28T00:26:32;3.20;;;2.90;;
75744;SDS011;64359;51.366;-0.222;2023-07-28T00:27:36;2.60;;;2.40;;
75744;SDS011;64359;51.366;-0.222;2023-07-28T00:28:40;3.60;;;3.30;;
75744;SDS011;64359;51.366;-0.222;2023-07-28T00:29:45;2.90;;;2.70;;
75744;SDS011;64359;51.366;-0.222;2023-07-28T00:30:50;2.70;;;2.50;;
75744;SDS011;64359;51.366;-0.222;2023-07-28T00:31:54;2.60;;;2.40;;
75744;SDS011;64359;51.366;-0.222;2023-07-28T00:33:01;2.80;;;2.50;;
75744;SDS011;64359;51.366;-0.222;2023-07-28T00:34:09;3.00;;;2.80;;
75744;SDS011;64359;51.366;-0.222;2023-07-28T00:35:13;3.00;;;2.70;;
75744;SDS011;64359;51.366;-0.222;2023-07-28T00:36:18;2.70;;;2.40;;
75744;SDS011;64359;51.366;-0.222;2023-07-28T00:37:22;2.80;;;2.60;;
75744;SDS011;64359;51.366;-0.222;2023-07-28T00:38:27;3.60;;;3.30;;
75744;SDS011;64359;51.366;-0.222;2023-07-28T00:39:31;2.90;;;2.60;;
75744;SDS011;64359;51.366;-0.222;2023-07-28T00:40:36;2.60;;;2.40;;
75744;SDS011;64359;51.366;-0.222;2023-07-28T00:41:40;2.50;;;2.30;;
75744;SDS011;64359;51.366;-0.222;2023-07-28T00:42:45;2.60;;;2.40;;
75744;SDS011;64359;51.366;-0.222;2023-07-28T00:43:49;2.30;;;2.10;;
75744;SDS011;64359;51.366;-0.222;2023-07-28T00:44:53;2.50;;;2.40;;
75744;SDS011;64359;51.366;-0.222;2023-07-28T00:45:58;2.60;;;2.40;;
75744;SDS011;64359;51.366;-0.222;2023-07-28T00:47:03;3.40;;;2.50;;
75744;SDS011;64359;51.366;-0.222;2023-07-28T00:48:10;2.70;;;2.50;;
75744;SDS011;64359;51.366;-0.222;2023-07-28T00:49:15;2.60;;;2.40;;
75744;SDS011;64359;51.366;-0.222;2023-07-28T00:50:20;2.40;;;2.20;;
75744;SDS011;64359;51.366;-0.222;2023-07-28T00:51:25;2.80;;;2.60;;
75744;SDS011;64359;51.366;-0.222;2023-07-28T00:52:30;2.50;;;2.30;;
75744;SDS011;64359;51.366;-0.222;2023-07-28T00:53:35;2.70;;;2.40;;
75744;SDS011;64359;51.366;-0.222;2023-07-28T00:54:39;3.30;;;2.70;;
75744;SDS011;64359;51.366;-0.222;2023-07-28T00:55:43;3.00;;;2.50;;
75744;SDS011;64359;51.366;-0.222;2023-07-28T00:56:48;2.70;;;2.50;;
75744;SDS011;64359;51.366;-0.222;2023-07-28T00:57:52;3.10;;;2.80;;
75744;SDS011;64359;51.366;-0.222;2023-07-28T00:58:57;3.30;;;2.70;;
75744;SDS011;64359;51.366;-0.222;2023-07-28T01:00:02;3.20;;;2.90;;
75744;SDS011;64359;51.366;-0.222;2023-07-28T01:01:08;2.80;;;2.60;;
75744;SDS011;64359;51.366;-0.222;2023-07-28T01:02:12;3.00;;;2.80;;
75744;SDS011;64359;51.366;-0.222;2023-07-28T01:03:17;3.60;;;3.00;;
75744;SDS011;64359;51.366;-0.222;2023-07-28T01:04:23;2.90;;;2.70;;
75744;SDS011;64359;51.366;-0.222;2023-07-28T01:05:30;3.30;;;3.00;;
75744;SDS011;64359;51.366;-0.222;2023-07-28T01:06:44;3.10;;;2.80;;
75744;SDS011;64359;51.366;-0.222;2023-07-28T01:07:58;2.90;;;2.70;;
75744;SDS011;64359;51.366;-0.222;2023-07-28T01:09:11;3.00;;;2.80;;
75744;SDS011;64359;51.366;-0.222;2023-07-28T01:10:22;2.70;;;2.50;;
75744;SDS011;64359;51.366;-0.222;2023-07-28T01:11:29;2.30;;;2.10;;
75744;SDS011;64359;51.366;-0.222;2023-07-28T01:12:34;2.50;;;2.00;;
75744;SDS011;64359;51.366;-0.222;2023-07-28T01:13:38;2.50;;;2.10;;
75744;SDS011;64359;51.366;-0.222;2023-07-28T01:14:43;3.30;;;2.20;;
75744;SDS011;64359;51.366;-0.222;2023-07-28T01:15:47;3.60;;;2.60;;
75744;SDS011;64359;51.366;-0.222;2023-07-28T01:16:52;2.90;;;2.60;;
75744;SDS011;64359;51.366;-0.222;2023-07-28T01:17:56;3.50;;;3.20;;
75744;SDS011;64359;51.366;-0.222;2023-07-28T01:19:01;2.80;;;2.60;;
75744;SDS011;64359;51.366;-0.222;2023-07-28T01:20:06;3.00;;;2.80;;
75744;SDS011;64359;51.366;-0.222;2023-07-28T01:21:14;2.40;;;2.20;;
75744;SDS011;64359;51.366;-0.222;2023-07-28T01:22:29;2.70;;;2.30;;
75744;SDS011;64359;51.366;-0.222;2023-07-28T01:24:01;2.50;;;2.30;;
75744;SDS011;64359;51.366;-0.222;2023-07-28T01:25:18;3.00;;;2.60;;
75744;SDS011;64359;51.366;-0.222;2023-07-28T01:26:33;2.80;;;2.50;;
75744;SDS011;64359;51.366;-0.222;2023-07-28T01:27:39;2.80;;;2.60;;
75744;SDS011;64359;51.366;-0.222;2023-07-28T01:28:44;3.20;;;2.60;;
75744;SDS011;64359;51.366;-0.222;2023-07-28T01:29:50;2.90;;;2.60;;
75744;SDS011;64359;51.366;-0.222;2023-07-28T01:30:56;2.70;;;2.50;;
75744;SDS011;64359;51.366;-0.222;2023-07-28T01:32:00;2.50;;;2.20;;
75744;SDS011;64359;51.366;-0.222;2023-07-28T01:33:07;2.90;;;2.60;;
75744;SDS011;64359;51.366;-0.222;2023-07-28T01:34:11;3.00;;;2.80;;
75744;SDS011;64359;51.366;-0.222;2023-07-28T01:35:16;2.50;;;2.30;;
75744;SDS011;64359;51.366;-0.222;2023-07-28T01:36:20;2.30;;;2.10;;
75744;SDS011;64359;51.366;-0.222;2023-07-28T01:37:25;2.70;;;2.50;;
75744;SDS011;64359;51.366;-0.222;2023-07-28T01:38:29;2.20;;;2.00;;
75744;SDS011;64359;51.366;-0.222;2023-07-28T01:39:34;2.10;;;1.90;;
75744;SDS011;64359;51.366;-0.222;2023-07-28T01:40:38;2.80;;;2.60;;
75744;SDS011;64359;51.366;-0.222;2023-07-28T01:41:43;2.70;;;2.50;;
75744;SDS011;64359;51.366;-0.222;2023-07-28T01:42:47;2.80;;;2.50;;
75744;SDS011;64359;51.366;-0.222;2023-07-28T01:43:51;2.50;;;2.30;;
75744;SDS011;64359;51.366;-0.222;2023-07-28T01:44:57;3.10;;;2.90;;
75744;SDS011;64359;51.366;-0.222;2023-07-28T01:46:01;2.60;;;2.30;;
75744;SDS011;64359;51.366;-0.222;2023-07-28T01:47:06;2.80;;;2.50;;
75744;SDS011;64359;51.366;-0.222;2023-07-28T01:48:10;2.50;;;2.30;;
75744;SDS011;64359;51.366;-0.222;2023-07-28T01:49:14;2.50;;;2.30;;
75744;SDS011;64359;51.366;-0.222;2023-07-28T01:50:19;3.10;;;2.50;;
75744;SDS011;64359;51.366;-0.222;2023-07-28T01:51:23;2.60;;;2.40;;
75744;SDS011;64359;51.366;-0.222;2023-07-28T01:52:28;2.90;;;2.50;;
75744;SDS011;64359;51.366;-0.222;2023-07-28T01:53:32;2.50;;;2.30;;
75744;SDS011;64359;51.366;-0.222;2023-07-28T01:54:36;2.90;;;2.70;;
75744;SDS011;64359;51.366;-0.222;2023-07-28T01:55:41;2.60;;;2.40;;
75744;SDS011;64359;51.366;-0.222;2023-07-28T01:56:45;2.60;;;2.40;;
75744;SDS011;64359;51.366;-0.222;2023-07-28T01:57:53;2.80;;;2.60;;
75744;SDS011;64359;51.366;-0.222;2023-07-28T01:58:59;3.40;;;3.10;;
75744;SDS011;64359;51.366;-0.222;2023-07-28T02:00:04;3.10;;;2.70;;
75744;SDS011;64359;51.366;-0.222;2023-07-28T02:01:09;2.40;;;2.20;;
75744;SDS011;64359;51.366;-0.222;2023-07-28T02:02:16;2.80;;;2.50;;
75744;SDS011;64359;51.366;-0.222;2023-07-28T02:03:20;2.90;;;2.40;;
75744;SDS011;64359;51.366;-0.222;2023-07-28T02:04:25;2.10;;;1.90;;
75744;SDS011;64359;51.366;-0.222;2023-07-28T02:05:30;2.10;;;1.90;;
75744;SDS011;64359;51.366;-0.222;2023-07-28T02:06:34;1.90;;;1.80;;
75744;SDS011;64359;51.366;-0.222;2023-07-28T02:07:38;3.20;;;2.30;;
75744;SDS011;64359;51.366;-0.222;2023-07-28T02:08:43;2.50;;;2.20;;
75744;SDS011;64359;51.366;-0.222;2023-07-28T02:09:47;2.80;;;2.50;;
75744;SDS011;64359;51.366;-0.222;2023-07-28T02:10:52;2.50;;;2.30;;
75744;SDS011;64359;51.366;-0.222;2023-07-28T02:11:57;2.50;;;2.30;;
75744;SDS011;64359;51.366;-0.222;2023-07-28T02:13:01;2.50;;;2.20;;
75744;SDS011;64359;51.366;-0.222;2023-07-28T02:14:06;2.30;;;2.10;;
75744;SDS011;64359;51.366;-0.222;2023-07-28T02:15:11;2.60;;;2.40;;
75744;SDS011;64359;51.366;-0.222;2023-07-28T02:16:16;2.30;;;2.10;;
75744;SDS011;64359;51.366;-0.222;2023-07-28T02:17:20;2.70;;;2.40;;
75744;SDS011;64359;51.366;-0.222;2023-07-28T02:18:25;2.00;;;1.90;;
75744;SDS011;64359;51.366;-0.222;2023-07-28T02:19:30;2.30;;;2.10;;
75744;SDS011;64359;51.366;-0.222;2023-07-28T02:20:35;2.30;;;2.10;;
75744;SDS011;64359;51.366;-0.222;2023-07-28T02:21:40;2.90;;;2.50;;
75744;SDS011;64359;51.366;-0.222;2023-07-28T02:22:44;2.70;;;2.20;;
75744;SDS011;64359;51.366;-0.222;2023-07-28T02:23:49;2.30;;;2.10;;
75744;SDS011;64359;51.366;-0.222;2023-07-28T02:24:53;3.10;;;2.40;;
75744;SDS011;64359;51.366;-0.222;2023-07-28T02:25:58;2.50;;;2.30;;
75744;SDS011;64359;51.366;-0.222;2023-07-28T02:27:02;2.60;;;2.40;;
75744;SDS011;64359;51.366;-0.222;2023-07-28T02:28:09;2.40;;;2.20;;
75744;SDS011;64359;51.366;-0.222;2023-07-28T02:29:14;2.50;;;2.20;;
75744;SDS011;64359;51.366;-0.222;2023-07-28T02:30:18;2.40;;;2.20;;
75744;SDS011;64359;51.366;-0.222;2023-07-28T02:31:23;2.70;;;2.30;;
75744;SDS011;64359;51.366;-0.222;2023-07-28T02:32:27;2.70;;;2.50;;
75744;SDS011;64359;51.366;-0.222;2023-07-28T02:33:32;2.30;;;2.10;;
75744;SDS011;64359;51.366;-0.222;2023-07-28T02:34:38;2.10;;;2.00;;
75744;SDS011;64359;51.366;-0.222;2023-07-28T02:35:42;1.90;;;1.80;;
75744;SDS011;64359;51.366;-0.222;2023-07-28T02:36:46;1.70;;;1.60;;
75744;SDS011;64359;51.366;-0.222;2023-07-28T02:37:51;2.10;;;1.90;;
75744;SDS011;64359;51.366;-0.222;2023-07-28T02:38:55;1.90;;;1.80;;
75744;SDS011;64359;51.366;-0.222;2023-07-28T02:40:00;1.90;;;1.80;;
75744;SDS011;64359;51.366;-0.222;2023-07-28T02:41:04;2.30;;;2.10;;
75744;SDS011;64359;51.366;-0.222;2023-07-28T02:42:09;2.00;;;1.90;;
75744;SDS011;64359;51.366;-0.222;2023-07-28T02:43:14;2.50;;;2.30;;
75744;SDS011;64359;51.366;-0.222;2023-07-28T02:44:18;3.60;;;2.20;;
75744;SDS011;64359;51.366;-0.222;2023-07-28T02:45:22;2.00;;;1.90;;
75744;SDS011;64359;51.366;-0.222;2023-07-28T02:46:27;2.20;;;2.00;;
75744;SDS011;64359;51.366;-0.222;2023-07-28T02:47:31;3.00;;;2.80;;
75744;SDS011;64359;51.366;-0.222;2023-07-28T02:48:36;1.90;;;1.80;;
75744;SDS011;64359;51.366;-0.222;2023-07-28T02:49:41;2.20;;;2.00;;
75744;SDS011;64359;51.366;-0.222;2023-07-28T02:50:47;2.20;;;2.00;;
75744;SDS011;64359;51.366;-0.222;2023-07-28T02:51:52;2.40;;;2.20;;
75744;SDS011;64359;51.366;-0.222;2023-07-28T02:52:57;2.00;;;1.80;;
75744;SDS011;64359;51.366;-0.222;2023-07-28T02:54:01;2.50;;;2.30;;
75744;SDS011;64359;51.366;-0.222;2023-07-28T02:55:06;2.00;;;1.90;;
75744;SDS011;64359;51.366;-0.222;2023-07-28T02:56:11;2.40;;;2.10;;
75744;SDS011;64359;51.366;-0.222;2023-07-28T02:57:16;2.00;;;1.90;;
75744;SDS011;64359;51.366;-0.222;2023-07-28T02:58:20;2.30;;;2.10;;
75744;SDS011;64359;51.366;-0.222;2023-07-28T02:59:25;2.10;;;1.90;;
75744;SDS011;64359;51.366;-0.222;2023-07-28T03:00:29;2.40;;;1.90;;
75744;SDS011;64359;51.366;-0.222;2023-07-28T03:01:33;2.30;;;2.10;;
75744;SDS011;64359;51.366;-0.222;2023-07-28T03:02:38;2.20;;;2.00;;
75744;SDS011;64359;51.366;-0.222;2023-07-28T03:03:42;1.90;;;1.80;;
75744;SDS011;64359;51.366;-0.222;2023-07-28T03:04:49;1.90;;;1.80;;
75744;SDS011;64359;51.366;-0.222;2023-07-28T03:05:53;2.40;;;1.70;;
75744;SDS011;64359;51.366;-0.222;2023-07-28T03:06:57;2.00;;;1.60;;
75744;SDS011;64359;51.366;-0.222;2023-07-28T03:08:02;1.70;;;1.40;;
75744;SDS011;64359;51.366;-0.222;2023-07-28T03:09:07;1.60;;;1.50;;
75744;SDS011;64359;51.366;-0.222;2023-07-28T03:10:11;1.60;;;1.50;;
75744;SDS011;64359;51.366;-0.222;2023-07-28T03:11:18;2.10;;;1.70;;
75744;SDS011;64359;51.366;-0.222;2023-07-28T03:12:22;1.90;;;1.80;;
75744;SDS011;64359;51.366;-0.222;2023-07-28T03:13:27;2.50;;;2.00;;
75744;SDS011;64359;51.366;-0.222;2023-07-28T03:14:31;1.90;;;1.70;;
75744;SDS011;64359;51.366;-0.222;2023-07-28T03:15:35;1.50;;;1.40;;
75744;SDS011;64359;51.366;-0.222;2023-07-28T03:16:40;2.00;;;1.80;;
75744;SDS011;64359;51.366;-0.222;2023-07-28T03:17:45;1.80;;;1.70;;
75744;SDS011;64359;51.366;-0.222;2023-07-28T03:18:49;1.80;;;1.70;;
75744;SDS011;64359;51.366;-0.222;2023-07-28T03:19:54;2.20;;;1.60;;
75744;SDS011;64359;51.366;-0.222;2023-07-28T03:20:58;1.90;;;1.80;;
75744;SDS011;64359;51.366;-0.222;2023-07-28T03:22:03;2.00;;;1.80;;
75744;SDS011;64359;51.366;-0.222;2023-07-28T03:23:07;1.60;;;1.50;;
75744;SDS011;64359;51.366;-0.222;2023-07-28T03:24:11;1.70;;;1.60;;
75744;SDS011;64359;51.366;-0.222;2023-07-28T03:25:16;2.00;;;1.80;;
75744;SDS011;64359;51.366;-0.222;2023-07-28T03:26:24;1.60;;;1.50;;
75744;SDS011;64359;51.366;-0.222;2023-07-28T03:27:28;1.60;;;1.50;;
75744;SDS011;64359;51.366;-0.222;2023-07-28T03:28:33;1.80;;;1.70;;
75744;SDS011;64359;51.366;-0.222;2023-07-28T03:29:37;2.00;;;1.90;;
75744;SDS011;64359;51.366;-0.222;2023-07-28T03:30:42;1.70;;;1.60;;
75744;SDS011;64359;51.366;-0.222;2023-07-28T03:31:46;2.10;;;1.90;;
75744;SDS011;64359;51.366;-0.222;2023-07-28T03:32:50;2.20;;;2.00;;
75744;SDS011;64359;51.366;-0.222;2023-07-28T03:33:55;1.70;;;1.50;;
75744;SDS011;64359;51.366;-0.222;2023-07-28T03:34:59;1.60;;;1.50;;
75744;SDS011;64359;51.366;-0.222;2023-07-28T03:36:06;1.50;;;1.40;;
75744;SDS011;64359;51.366;-0.222;2023-07-28T03:37:11;1.30;;;1.20;;
75744;SDS011;64359;51.366;-0.222;2023-07-28T03:38:15;1.40;;;1.30;;
75744;SDS011;64359;51.366;-0.222;2023-07-28T03:39:20;1.30;;;1.20;;
75744;SDS011;64359;51.366;-0.222;2023-07-28T03:40:24;1.50;;;1.40;;
75744;SDS011;64359;51.366;-0.222;2023-07-28T03:41:29;1.20;;;1.20;;
75744;SDS011;64359;51.366;-0.222;2023-07-28T03:42:33;2.00;;;1.50;;
75744;SDS011;64359;51.366;-0.222;2023-07-28T03:43:37;1.40;;;1.40;;
75744;SDS011;64359;51.366;-0.222;2023-07-28T03:44:42;1.50;;;1.40;;
75744;SDS011;64359;51.366;-0.222;2023-07-28T03:45:46;1.40;;;1.30;;
75744;SDS011;64359;51.366;-0.222;2023-07-28T03:46:51;1.50;;;1.40;;
75744;SDS011;64359;51.366;-0.222;2023-07-28T03:47:55;1.30;;;1.20;;
75744;SDS011;64359;51.366;-0.222;2023-07-28T03:48:59;1.70;;;1.60;;
75744;SDS011;64359;51.366;-0.222;2023-07-28T03:50:04;2.00;;;1.30;;
75744;SDS011;64359;51.366;-0.222;2023-07-28T03:51:09;1.60;;;1.50;;
75744;SDS011;64359;51.366;-0.222;2023-07-28T03:52:13;1.70;;;1.30;;
75744;SDS011;64359;51.366;-0.222;2023-07-28T03:53:18;1.20;;;1.10;;
75744;SDS011;64359;51.366;-0.222;2023-07-28T03:54:22;1.60;;;1.50;;
75744;SDS011;64359;51.366;-0.222;2023-07-28T03:55:27;1.60;;;1.50;;
75744;SDS011;64359;51.366;-0.222;2023-07-28T03:56:31;1.50;;;1.40;;
75744;SDS011;64359;51.366;-0.222;2023-07-28T03:57:35;1.40;;;1.30;;
75744;SDS011;64359;51.366;-0.222;2023-07-28T03:58:40;1.90;;;1.80;;
75744;SDS011;64359;51.366;-0.222;2023-07-28T03:59:45;1.40;;;1.30;;
75744;SDS011;64359;51.366;-0.222;2023-07-28T04:00:49;1.30;;;1.20;;
75744;SDS011;64359;51.366;-0.222;2023-07-28T04:01:54;1.50;;;1.40;;
75744;SDS011;64359;51.366;-0.222;2023-07-28T04:02:58;1.50;;;1.40;;
75744;SDS011;64359;51.366;-0.222;2023-07-28T04:04:03;1.10;;;1.10;;
75744;SDS011;64359;51.366;-0.222;2023-07-28T04:05:08;1.40;;;1.30;;
75744;SDS011;64359;51.366;-0.222;2023-07-28T04:06:12;1.00;;;1.00;;
75744;SDS011;64359;51.366;-0.222;2023-07-28T04:07:17;1.10;;;1.00;;
75744;SDS011;64359;51.366;-0.222;2023-07-28T04:08:22;1.40;;;1.30;;
75744;SDS011;64359;51.366;-0.222;2023-07-28T04:09:26;1.20;;;1.10;;
75744;SDS011;64359;51.366;-0.222;2023-07-28T04:10:31;1.70;;;1.60;;
75744;SDS011;64359;51.366;-0.222;2023-07-28T04:11:35;1.20;;;1.20;;
75744;SDS011;64359;51.366;-0.222;2023-07-28T04:12:40;1.50;;;1.40;;
75744;SDS011;64359;51.366;-0.222;2023-07-28T04:13:44;1.10;;;1.10;;
75744;SDS011;64359;51.366;-0.222;2023-07-28T04:14:48;1.60;;;1.50;;
75744;SDS011;64359;51.366;-0.222;2023-07-28T04:15:53;1.10;;;1.10;;
75744;SDS011;64359;51.366;-0.222;2023-07-28T04:16:57;1.40;;;1.30;;
75744;SDS011;64359;51.366;-0.222;2023-07-28T04:18:02;1.30;;;1.20;;
75744;SDS011;64359;51.366;-0.222;2023-07-28T04:19:06;1.10;;;1.10;;
75744;SDS011;64359;51.366;-0.222;2023-07-28T04:20:11;1.10;;;1.10;;
75744;SDS011;64359;51.366;-0.222;2023-07-28T04:21:16;1.40;;;1.30;;
75744;SDS011;64359;51.366;-0.222;2023-07-28T04:22:20;1.40;;;1.20;;
75744;SDS011;64359;51.366;-0.222;2023-07-28T04:23:24;1.00;;;1.00;;
75744;SDS011;64359;51.366;-0.222;2023-07-28T04:24:29;1.00;;;1.00;;
75744;SDS011;64359;51.366;-0.222;2023-07-28T04:25:33;1.30;;;1.20;;
75744;SDS011;64359;51.366;-0.222;2023-07-28T04:26:37;1.20;;;1.10;;
75744;SDS011;64359;51.366;-0.222;2023-07-28T04:27:44;1.10;;;1.10;;
75744;SDS011;64359;51.366;-0.222;2023-07-28T04:28:48;1.40;;;1.30;;
75744;SDS011;64359;51.366;-0.222;2023-07-28T04:29:53;1.10;;;1.10;;
75744;SDS011;64359;51.366;-0.222;2023-07-28T04:30:57;1.20;;;1.10;;
75744;SDS011;64359;51.366;-0.222;2023-07-28T04:32:01;1.00;;;1.00;;
75744;SDS011;64359;51.366;-0.222;2023-07-28T04:33:06;1.10;;;0.90;;
75744;SDS011;64359;51.366;-0.222;2023-07-28T04:34:11;1.40;;;1.30;;
75744;SDS011;64359;51.366;-0.222;2023-07-28T04:35:15;1.10;;;1.10;;
75744;SDS011;64359;51.366;-0.222;2023-07-28T04:36:19;1.20;;;1.10;;
75744;SDS011;64359;51.366;-0.222;2023-07-28T04:37:24;0.80;;;0.80;;
75744;SDS011;64359;51.366;-0.222;2023-07-28T04:38:28;0.90;;;0.90;;
75744;SDS011;64359;51.366;-0.222;2023-07-28T04:39:32;1.00;;;1.00;;
75744;SDS011;64359;51.366;-0.222;2023-07-28T04:40:37;1.00;;;1.00;;
75744;SDS011;64359;51.366;-0.222;2023-07-28T04:41:41;1.50;;;1.10;;
75744;SDS011;64359;51.366;-0.222;2023-07-28T04:42:46;1.00;;;1.00;;
75744;SDS011;64359;51.366;-0.222;2023-07-28T04:43:54;0.80;;;0.80;;
75744;SDS011;64359;51.366;-0.222;2023-07-28T04:44:58;1.20;;;1.20;;
75744;SDS011;64359;51.366;-0.222;2023-07-28T04:46:03;1.10;;;1.00;;
75744;SDS011;64359;51.366;-0.222;2023-07-28T04:47:07;1.00;;;1.00;;
75744;SDS011;64359;51.366;-0.222;2023-07-28T04:48:12;0.90;;;0.90;;
75744;SDS011;64359;51.366;-0.222;2023-07-28T04:49:16;1.00;;;1.00;;
75744;SDS011;64359;51.366;-0.222;2023-07-28T04:50:23;1.20;;;1.10;;
75744;SDS011;64359;51.366;-0.222;2023-07-28T04:51:27;1.40;;;1.30;;
75744;SDS011;64359;51.366;-0.222;2023-07-28T04:52:31;0.90;;;0.90;;
75744;SDS011;64359;51.366;-0.222;2023-07-28T04:53:35;0.90;;;0.90;;
75744;SDS011;64359;51.366;-0.222;2023-07-28T04:54:40;1.10;;;1.10;;
75744;SDS011;64359;51.366;-0.222;2023-07-28T04:55:45;1.00;;;1.00;;
75744;SDS011;64359;51.366;-0.222;2023-07-28T04:56:49;0.90;;;0.90;;
75744;SDS011;64359;51.366;-0.222;2023-07-28T04:57:54;1.00;;;1.00;;
75744;SDS011;64359;51.366;-0.222;2023-07-28T04:58:59;1.20;;;1.00;;
75744;SDS011;64359;51.366;-0.222;2023-07-28T05:00:03;1.40;;;1.40;;
75744;SDS011;64359;51.366;-0.222;2023-07-28T05:01:10;1.40;;;1.20;;
75744;SDS011;64359;51.366;-0.222;2023-07-28T05:02:14;1.30;;;1.20;;
75744;SDS011;64359;51.366;-0.222;2023-07-28T05:03:19;1.10;;;1.10;;
75744;SDS011;64359;51.366;-0.222;2023-07-28T05:04:23;0.90;;;0.90;;
75744;SDS011;64359;51.366;-0.222;2023-07-28T05:05:28;1.00;;;1.00;;
75744;SDS011;64359;51.366;-0.222;2023-07-28T05:06:32;0.90;;;0.90;;
75744;SDS011;64359;51.366;-0.222;2023-07-28T05:07:37;1.30;;;1.20;;
75744;SDS011;64359;51.366;-0.222;2023-07-28T05:08:41;0.60;;;0.60;;
75744;SDS011;64359;51.366;-0.222;2023-07-28T05:09:45;1.10;;;1.00;;
75744;SDS011;64359;51.366;-0.222;2023-07-28T05:10:50;0.90;;;0.90;;
75744;SDS011;64359;51.366;-0.222;2023-07-28T05:11:54;1.00;;;1.00;;
75744;SDS011;64359;51.366;-0.222;2023-07-28T05:12:58;1.20;;;0.90;;
75744;SDS011;64359;51.366;-0.222;2023-07-28T05:14:04;0.90;;;0.90;;
75744;SDS011;64359;51.366;-0.222;2023-07-28T05:15:10;1.20;;;1.20;;
75744;SDS011;64359;51.366;-0.222;2023-07-28T05:16:16;1.00;;;1.00;;
75744;SDS011;64359;51.366;-0.222;2023-07-28T05:17:20;1.10;;;1.10;;
75744;SDS011;64359;51.366;-0.222;2023-07-28T05:18:25;0.80;;;0.80;;
75744;SDS011;64359;51.366;-0.222;2023-07-28T05:19:29;1.00;;;1.00;;
75744;SDS011;64359;51.366;-0.222;2023-07-28T05:20:34;0.80;;;0.80;;
75744;SDS011;64359;51.366;-0.222;2023-07-28T05:21:38;0.80;;;0.80;;
75744;SDS011;64359;51.366;-0.222;2023-07-28T05:22:42;0.90;;;0.90;;
75744;SDS011;64359;51.366;-0.222;2023-07-28T05:23:47;0.90;;;0.90;;
75744;SDS011;64359;51.366;-0.222;2023-07-28T05:24:51;0.90;;;0.90;;
75744;SDS011;64359;51.366;-0.222;2023-07-28T05:25:55;0.90;;;0.90;;
75744;SDS011;64359;51.366;-0.222;2023-07-28T05:26:59;0.90;;;0.90;;
75744;SDS011;64359;51.366;-0.222;2023-07-28T05:28:04;1.10;;;1.10;;
75744;SDS011;64359;51.366;-0.222;2023-07-28T05:29:08;0.90;;;0.90;;
75744;SDS011;64359;51.366;-0.222;2023-07-28T05:30:13;0.80;;;0.80;;
75744;SDS011;64359;51.366;-0.222;2023-07-28T05:31:17;1.00;;;1.00;;
75744;SDS011;64359;51.366;-0.222;2023-07-28T05:32:21;0.90;;;0.90;;
75744;SDS011;64359;51.366;-0.222;2023-07-28T05:33:26;1.30;;;1.20;;
75744;SDS011;64359;51.366;-0.222;2023-07-28T05:34:30;0.90;;;0.90;;
75744;SDS011;64359;51.366;-0.222;2023-07-28T05:35:34;0.80;;;0.80;;
75744;SDS011;64359;51.366;-0.222;2023-07-28T05:36:38;0.80;;;0.80;;
75744;SDS011;64359;51.366;-0.222;2023-07-28T05:37:43;0.90;;;0.90;;
75744;SDS011;64359;51.366;-0.222;2023-07-28T05:38:47;0.80;;;0.80;;
75744;SDS011;64359;51.366;-0.222;2023-07-28T05:39:52;0.90;;;0.90;;
75744;SDS011;64359;51.366;-0.222;2023-07-28T05:40:57;0.60;;;0.60;;
75744;SDS011;64359;51.366;-0.222;2023-07-28T05:42:03;0.70;;;0.70;;
75744;SDS011;64359;51.366;-0.222;2023-07-28T05:43:07;0.60;;;0.60;;
75744;SDS011;64359;51.366;-0.222;2023-07-28T05:44:11;0.60;;;0.60;;
75744;SDS011;64359;51.366;-0.222;2023-07-28T05:45:16;0.90;;;0.90;;
75744;SDS011;64359;51.366;-0.222;2023-07-28T05:46:20;0.90;;;0.90;;
75744;SDS011;64359;51.366;-0.222;2023-07-28T05:47:25;0.80;;;0.80;;
75744;SDS011;64359;51.366;-0.222;2023-07-28T05:48:29;1.00;;;1.00;;
75744;SDS011;64359;51.366;-0.222;2023-07-28T05:49:33;1.00;;;1.00;;
75744;SDS011;64359;51.366;-0.222;2023-07-28T05:50:39;1.20;;;1.20;;
75744;SDS011;64359;51.366;-0.222;2023-07-28T05:51:43;1.00;;;0.90;;
75744;SDS011;64359;51.366;-0.222;2023-07-28T05:52:47;0.90;;;0.90;;
75744;SDS011;64359;51.366;-0.222;2023-07-28T05:53:52;0.80;;;0.80;;
75744;SDS011;64359;51.366;-0.222;2023-07-28T05:54:56;0.90;;;0.90;;
75744;SDS011;64359;51.366;-0.222;2023-07-28T05:56:01;1.00;;;1.00;;
75744;SDS011;64359;51.366;-0.222;2023-07-28T05:57:05;0.80;;;0.80;;
75744;SDS011;64359;51.366;-0.222;2023-07-28T05:58:10;0.70;;;0.70;;
75744;SDS011;64359;51.366;-0.222;2023-07-28T05:59:14;0.70;;;0.70;;
75744;SDS011;64359;51.366;-0.222;2023-07-28T06:00:19;0.80;;;0.80;;
75744;SDS011;64359;51.366;-0.222;2023-07-28T06:01:23;0.80;;;0.80;;
75744;SDS011;64359;51.366;-0.222;2023-07-28T06:02:28;1.00;;;1.00;;
75744;SDS011;64359;51.366;-0.222;2023-07-28T06:03:33;0.70;;;0.70;;
75744;SDS011;64359;51.366;-0.222;2023-07-28T06:04:37;0.60;;;0.60;;
75744;SDS011;64359;51.366;-0.222;2023-07-28T06:05:41;0.80;;;0.80;;
75744;SDS011;64359;51.366;-0.222;2023-07-28T06:06:46;0.70;;;0.70;;
75744;SDS011;64359;51.366;-0.222;2023-07-28T06:07:50;0.90;;;0.90;;
75744;SDS011;64359;51.366;-0.222;2023-07-28T06:08:54;0.70;;;0.70;;
75744;SDS011;64359;51.366;-0.222;2023-07-28T06:09:59;0.80;;;0.80;;
75744;SDS011;64359;51.366;-0.222;2023-07-28T06:11:04;0.90;;;0.90;;
75744;SDS011;64359;51.366;-0.222;2023-07-28T06:12:09;1.00;;;1.00;;
75744;SDS011;64359;51.366;-0.222;2023-07-28T06:13:14;0.70;;;0.70;;
75744;SDS011;64359;51.366;-0.222;2023-07-28T06:14:19;0.70;;;0.70;;
75744;SDS011;64359;51.366;-0.222;2023-07-28T06:15:23;0.90;;;0.90;;
75744;SDS011;64359;51.366;-0.222;2023-07-28T06:16:28;0.50;;;0.50;;
75744;SDS011;64359;51.366;-0.222;2023-07-28T06:17:32;0.70;;;0.70;;
75744;SDS011;64359;51.366;-0.222;2023-07-28T06:18:37;0.70;;;0.70;;
75744;SDS011;64359;51.366;-0.222;2023-07-28T06:19:41;0.60;;;0.60;;
75744;SDS011;64359;51.366;-0.222;2023-07-28T06:20:46;0.70;;;0.70;;
75744;SDS011;64359;51.366;-0.222;2023-07-28T06:21:50;0.60;;;0.60;;
75744;SDS011;64359;51.366;-0.222;2023-07-28T06:22:55;0.60;;;0.60;;
75744;SDS011;64359;51.366;-0.222;2023-07-28T06:23:59;0.70;;;0.70;;
75744;SDS011;64359;51.366;-0.222;2023-07-28T06:25:04;0.70;;;0.70;;